Time;durP1;ratioP1;P1;durP2;ratioP2;P2;SDS_P1;SDS_P2;PMS_P1;PMS_P2;Temp;Humidity;BMP_temperature;BMP_pressure;BME280_temperature;BME280_humidity;BME280_pressure;Samples;Min_cycle;Max_cycle;Signal;HPM_P1;HPM_P2
2022/04/28 00:00:34;;;;;;;1.93;1.10;;;9.80;1.00;;;;;;5076785;28;20894;-58
2022/04/28 00:03:01;;;;;;;3.80;1.80;;;9.80;1.00;;;;;;5075495;28;20882;-58
2022/04/28 00:05:29;;;;;;;5.10;1.50;;;9.80;1.00;;;;;;5075202;28;20730;-58
2022/04/28 00:07:56;;;;;;;2.77;1.50;;;9.70;1.00;;;;;;5074970;28;20454;-55
2022/04/28 00:10:23;;;;;;;2.53;1.37;;;9.70;1.00;;;;;;5075303;28;20451;-57
2022/04/28 00:12:52;;;;;;;2.60;1.67;;;9.70;1.00;;;;;;5075824;28;20890;-57
2022/04/28 00:15:21;;;;;;;1.70;1.10;;;9.70;1.00;;;;;;5075321;28;20478;-57
2022/04/28 00:17:48;;;;;;;2.30;1.57;;;9.70;1.00;;;;;;5076006;28;20909;-56
2022/04/28 00:20:15;;;;;;;1.60;1.20;;;9.70;1.00;;;;;;5076000;28;20446;-57
2022/04/28 00:22:42;;;;;;;2.37;1.50;;;9.70;1.00;;;;;;5075586;28;20450;-55
2022/04/28 00:25:09;;;;;;;2.10;1.13;;;9.70;1.00;;;;;;5076048;28;20435;-58
2022/04/28 00:27:37;;;;;;;2.50;1.20;;;9.60;1.00;;;;;;5075665;28;20442;-57
2022/04/28 00:30:06;;;;;;;2.30;1.30;;;9.60;1.00;;;;;;5075154;28;20450;-58
2022/04/28 00:32:33;;;;;;;3.00;1.30;;;9.60;1.00;;;;;;5075420;28;20447;-57
2022/04/28 00:35:00;;;;;;;3.90;1.57;;;9.60;1.00;;;;;;5075170;28;20488;-57
2022/04/28 00:37:27;;;;;;;2.67;1.10;;;9.60;1.00;;;;;;5075360;28;20442;-57
2022/04/28 00:39:54;;;;;;;1.70;1.33;;;9.50;1.00;;;;;;5075361;28;20465;-58
2022/04/28 00:42:21;;;;;;;1.80;1.00;;;9.40;1.00;;;;;;5075561;28;20445;-58
2022/04/28 00:44:48;;;;;;;2.40;1.33;;;9.40;1.00;;;;;;5076033;28;20959;-56
2022/04/28 00:47:16;;;;;;;2.13;1.10;;;9.30;1.00;;;;;;5075931;28;20450;-57
2022/04/28 00:52:29;;;;;;;2.30;1.20;;;9.30;1.00;;;;;;5075919;28;20414;-56
2022/04/28 00:54:57;;;;;;;1.70;1.00;;;9.30;1.00;;;;;;5075622;28;20482;-58
2022/04/28 00:57:25;;;;;;;2.03;1.70;;;9.40;1.00;;;;;;5075918;28;20448;-58
2022/04/28 00:59:52;;;;;;;1.60;1.10;;;9.30;1.00;;;;;;5075860;28;20454;-58
2022/04/28 01:02:20;;;;;;;3.70;1.10;;;9.20;1.00;;;;;;5076156;28;20884;-58
2022/04/28 01:04:48;;;;;;;2.23;1.07;;;9.10;1.00;;;;;;5075818;28;20455;-53
2022/04/28 01:07:16;;;;;;;4.53;1.23;;;9.10;1.00;;;;;;5075404;28;20452;-52
2022/04/28 01:09:44;;;;;;;3.70;1.20;;;9.10;1.00;;;;;;5075914;28;20454;-56
2022/04/28 01:12:14;;;;;;;2.00;1.17;;;9.20;1.00;;;;;;5075552;28;20693;-58
2022/04/28 01:14:42;;;;;;;2.00;1.10;;;9.20;1.00;;;;;;5075023;28;20489;-58
2022/04/28 01:17:09;;;;;;;3.53;1.97;;;9.20;1.00;;;;;;5075402;28;20793;-55
2022/04/28 01:19:38;;;;;;;2.03;1.07;;;9.20;1.00;;;;;;5075278;28;20454;-56
2022/04/28 01:22:06;;;;;;;3.30;1.40;;;9.10;1.00;;;;;;5075424;28;20446;-56
2022/04/28 01:24:33;;;;;;;2.10;1.10;;;9.10;1.00;;;;;;5075787;28;20969;-58
2022/04/28 01:27:02;;;;;;;2.27;1.50;;;9.10;9.60;;;;;;5075570;28;20450;-57
2022/04/28 01:29:31;;;;;;;2.33;2.03;;;9.10;1.00;;;;;;5077396;28;20754;-58
2022/04/28 01:31:58;;;;;;;2.80;1.30;;;9.10;1.00;;;;;;5078433;28;20450;-57
2022/04/28 01:34:25;;;;;;;3.13;1.30;;;9.10;10.50;;;;;;5078797;28;20486;-56
2022/04/28 01:36:52;;;;;;;3.30;1.50;;;9.00;1.00;;;;;;5079184;28;20451;-57
2022/04/28 01:39:20;;;;;;;2.30;1.20;;;9.00;1.00;;;;;;5079179;28;20456;-55
2022/04/28 01:41:48;;;;;;;2.13;1.20;;;9.00;19.80;;;;;;5078972;28;20515;-58
2022/04/28 01:44:15;;;;;;;4.57;2.97;;;9.00;3.00;;;;;;5078067;28;20488;-57
2022/04/28 01:46:45;;;;;;;2.87;1.30;;;9.00;1.00;;;;;;5077808;28;20516;-58
2022/04/28 01:49:12;;;;;;;2.30;1.27;;;9.00;1.00;;;;;;5077730;28;20458;-56
2022/04/28 01:57:09;;;;;;;1.50;1.20;;;9.00;1.00;;;;;;5077143;28;20858;-58
2022/04/28 01:59:36;;;;;;;3.40;1.67;;;9.00;1.00;;;;;;5078116;28;20454;-57
2022/04/28 02:02:03;;;;;;;3.20;1.30;;;8.90;1.00;;;;;;5078895;28;20977;-56
2022/04/28 02:04:30;;;;;;;2.80;1.53;;;8.90;1.00;;;;;;5078673;28;20456;-58
2022/04/28 02:07:11;;;;;;;2.73;1.30;;;8.90;4.50;;;;;;5078673;28;20468;-55
2022/04/28 02:09:39;;;;;;;1.60;1.27;;;8.80;3.40;;;;;;5078126;28;20455;-58
2022/04/28 02:12:06;;;;;;;4.10;1.80;;;8.80;1.00;;;;;;5077302;28;20457;-54
2022/04/28 02:14:34;;;;;;;1.93;1.47;;;8.80;1.00;;;;;;5077479;28;20478;-55
2022/04/28 02:17:01;;;;;;;1.63;1.20;;;8.80;1.00;;;;;;5076869;28;20525;-54
2022/04/28 02:19:27;;;;;;;2.33;1.20;;;8.80;3.00;;;;;;5076086;28;20454;-58
2022/04/28 02:21:55;;;;;;;1.60;1.10;;;8.80;1.60;;;;;;5077580;28;20453;-56
2022/04/28 02:24:22;;;;;;;3.20;1.27;;;8.80;2.30;;;;;;5077688;28;20451;-57
2022/04/28 02:26:50;;;;;;;2.53;1.60;;;8.70;4.80;;;;;;5078121;28;20447;-58
2022/04/28 02:29:17;;;;;;;2.00;1.10;;;8.70;12.10;;;;;;5078165;28;20461;-57
2022/04/28 02:31:44;;;;;;;2.17;1.20;;;8.70;1.00;;;;;;5077049;28;20447;-59
2022/04/28 02:34:11;;;;;;;3.20;1.50;;;8.70;21.10;;;;;;5075231;28;20596;-58
2022/04/28 02:36:38;;;;;;;2.00;1.20;;;8.80;11.80;;;;;;5075233;28;20442;-59
2022/04/28 02:39:05;;;;;;;2.43;1.20;;;8.80;1.00;;;;;;5074544;28;20762;-58
2022/04/28 02:41:32;;;;;;;2.63;1.97;;;8.80;1.00;;;;;;5075314;28;20446;-55
2022/04/28 02:44:00;;;;;;;2.70;1.20;;;8.80;1.00;;;;;;5075439;28;20755;-57
2022/04/28 02:46:28;;;;;;;1.77;1.00;;;8.70;1.00;;;;;;5076164;28;20450;-57
2022/04/28 02:48:55;;;;;;;1.50;1.30;;;8.60;1.00;;;;;;5077867;28;20516;-59
2022/04/28 02:51:22;;;;;;;1.83;1.10;;;8.60;1.00;;;;;;5078013;28;20455;-57
2022/04/28 02:53:49;;;;;;;3.20;1.93;;;8.60;4.60;;;;;;5077687;28;20453;-55
2022/04/28 02:56:16;;;;;;;3.30;1.40;;;8.60;1.00;;;;;;5077871;28;20513;-58
2022/04/28 02:58:43;;;;;;;3.27;1.33;;;8.50;1.00;;;;;;5076786;28;20447;-59
2022/04/28 03:01:11;;;;;;;2.00;1.40;;;8.50;1.00;;;;;;5076708;28;20454;-57
2022/04/28 03:03:38;;;;;;;2.60;1.30;;;8.50;5.30;;;;;;5075461;28;20513;-57
2022/04/28 03:11:36;;;;;;;1.43;1.07;;;8.50;15.00;;;;;;5076847;28;20429;-57
2022/04/28 03:14:03;;;;;;;2.53;1.20;;;8.40;12.50;;;;;;5076525;28;20446;-56
2022/04/28 03:16:31;;;;;;;2.10;1.10;;;8.40;13.00;;;;;;5077075;28;20455;-58
2022/04/28 03:18:58;;;;;;;3.67;1.43;;;8.40;12.10;;;;;;5076488;28;20485;-57
2022/04/28 03:21:25;;;;;;;2.43;1.40;;;8.40;18.00;;;;;;5075703;28;20456;-57
2022/04/28 03:23:52;;;;;;;2.00;1.40;;;8.30;29.00;;;;;;5076016;28;20719;-57
2022/04/28 03:26:19;;;;;;;2.80;1.43;;;8.30;35.40;;;;;;5075569;28;20457;-58
2022/04/28 03:28:46;;;;;;;2.67;2.23;;;8.30;35.60;;;;;;5075792;28;20521;-57
2022/04/28 03:31:13;;;;;;;4.63;1.20;;;8.30;28.80;;;;;;5074363;28;20454;-56
2022/04/28 03:33:41;;;;;;;7.43;1.30;;;8.20;28.70;;;;;;5075894;28;20487;-58
2022/04/28 03:36:50;;;;;;;2.00;1.30;;;8.20;32.20;;;;;;5076593;28;20967;-56
2022/04/28 03:38:55;;;;;;;2.90;1.17;;;8.10;37.20;;;;;;5076964;28;20743;-58
2022/04/28 03:41:21;;;;;;;1.93;1.00;;;8.20;42.40;;;;;;5076679;28;20465;-56
2022/04/28 03:43:48;;;;;;;2.17;1.93;;;8.20;35.20;;;;;;5076566;28;20773;-58
2022/04/28 03:46:16;;;;;;;2.60;1.30;;;8.20;19.50;;;;;;5076494;28;20549;-56
2022/04/28 03:48:44;;;;;;;4.73;1.20;;;8.20;22.60;;;;;;5076019;28;20442;-56
2022/04/28 03:51:11;;;;;;;2.80;1.27;;;8.30;1.00;;;;;;5075661;28;20454;-57
2022/04/28 03:53:38;;;;;;;2.77;1.13;;;8.20;1.00;;;;;;5075986;28;20450;-55
2022/04/28 03:56:06;;;;;;;2.80;1.60;;;8.20;3.50;;;;;;5076217;28;20927;-53
2022/04/28 03:58:33;;;;;;;1.53;1.07;;;8.20;1.00;;;;;;5075780;28;20443;-56
2022/04/28 04:01:00;;;;;;;2.70;1.30;;;8.10;1.00;;;;;;5075843;28;20570;-55
2022/04/28 04:03:30;;;;;;;4.40;1.40;;;8.10;14.20;;;;;;5076197;28;20537;-57
2022/04/28 04:05:59;;;;;;;3.13;1.40;;;8.10;18.00;;;;;;5076291;28;20451;-56
2022/04/28 04:08:26;;;;;;;1.80;1.30;;;8.10;22.10;;;;;;5076589;28;20446;-56
2022/04/28 04:10:53;;;;;;;3.20;1.50;;;8.10;35.20;;;;;;5076587;28;20450;-55
2022/04/28 04:13:20;;;;;;;3.50;1.60;;;8.10;27.20;;;;;;5075895;28;20447;-56
2022/04/28 04:15:46;;;;;;;1.80;1.10;;;8.00;23.50;;;;;;5076110;28;20496;-56
2022/04/28 04:18:13;;;;;;;3.30;1.47;;;8.00;26.20;;;;;;5075971;28;20859;-56
2022/04/28 04:20:40;;;;;;;1.63;1.13;;;8.00;33.40;;;;;;5076025;28;20454;-56
2022/04/28 04:23:08;;;;;;;5.43;1.30;;;8.00;32.00;;;;;;5075752;28;20453;-57
2022/04/28 04:25:35;;;;;;;5.40;1.40;;;8.00;17.80;;;;;;5076031;28;20738;-56
2022/04/28 04:28:02;;;;;;;3.50;1.40;;;8.00;14.50;;;;;;5075463;28;20450;-57
2022/04/28 04:33:13;;;;;;;1.73;0.97;;;8.00;17.10;;;;;;5075626;28;20852;-57
2022/04/28 04:35:39;;;;;;;2.57;1.67;;;8.00;25.80;;;;;;5075215;28;20517;-56
2022/04/28 04:38:08;;;;;;;4.63;1.60;;;8.10;17.10;;;;;;5074851;28;20457;-58
2022/04/28 04:40:34;;;;;;;2.47;1.40;;;8.00;5.80;;;;;;5075012;28;20730;-57
2022/04/28 04:43:02;;;;;;;2.30;1.50;;;8.10;11.70;;;;;;5074536;28;20439;-58
2022/04/28 04:45:29;;;;;;;4.43;1.80;;;8.10;2.10;;;;;;5073823;28;20489;-59
2022/04/28 04:47:56;;;;;;;2.20;1.27;;;8.10;1.00;;;;;;5075075;28;20453;-55
2022/04/28 04:50:23;;;;;;;5.50;1.40;;;8.00;11.10;;;;;;5075846;28;20936;-55
2022/04/28 04:52:50;;;;;;;2.17;1.60;;;8.00;12.30;;;;;;5074778;28;20455;-54
2022/04/28 04:55:18;;;;;;;3.83;1.43;;;8.00;20.70;;;;;;5074874;28;20482;-55
2022/04/28 04:57:47;;;;;;;2.70;1.33;;;8.00;23.80;;;;;;5073890;28;20446;-55
2022/04/28 05:00:15;;;;;;;2.80;1.40;;;8.00;43.10;;;;;;5074939;28;20515;-55
2022/04/28 05:02:41;;;;;;;2.57;1.20;;;8.10;31.20;;;;;;5076804;28;20529;-56
2022/04/28 05:05:09;;;;;;;4.43;1.60;;;8.20;19.70;;;;;;5078275;28;20750;-53
2022/04/28 05:07:39;;;;;;;3.40;1.30;;;8.20;5.70;;;;;;5078657;28;20438;-56
2022/04/28 05:10:07;;;;;;;6.60;1.30;;;8.20;15.30;;;;;;5078593;28;20882;-56
2022/04/28 05:12:35;;;;;;;3.10;1.70;;;8.30;16.00;;;;;;5078496;28;20447;-58
2022/04/28 05:15:02;;;;;;;2.90;1.40;;;8.40;14.70;;;;;;5078000;28;20486;-58
2022/04/28 05:17:29;;;;;;;3.40;2.30;;;8.40;8.60;;;;;;5078373;28;20450;-57
2022/04/28 05:19:58;;;;;;;3.00;1.80;;;8.40;5.60;;;;;;5078127;28;20991;-55
2022/04/28 05:22:27;;;;;;;1.80;1.43;;;8.40;6.60;;;;;;5077516;28;20450;-57
2022/04/28 05:24:54;;;;;;;3.53;1.70;;;8.40;3.60;;;;;;5077617;28;20464;-54
2022/04/28 05:27:21;;;;;;;3.50;2.00;;;8.40;1.00;;;;;;5077609;28;20843;-52
2022/04/28 05:29:49;;;;;;;2.83;2.40;;;8.30;9.60;;;;;;5076908;28;20454;-56
2022/04/28 05:32:16;;;;;;;3.20;1.40;;;8.20;20.10;;;;;;5076458;28;20449;-56
2022/04/28 05:34:43;;;;;;;5.20;2.00;;;8.20;34.40;;;;;;5076158;28;20451;-56
2022/04/28 05:37:12;;;;;;;2.90;1.97;;;8.40;42.40;;;;;;5076586;28;20446;-57
2022/04/28 05:39:41;;;;;;;4.40;1.63;;;8.50;44.90;;;;;;5075359;28;20446;-56
2022/04/28 05:42:11;;;;;;;3.50;1.93;;;8.60;18.90;;;;;;5075626;28;20457;-57
2022/04/28 05:47:25;;;;;;;3.87;2.40;;;8.70;19.40;;;;;;5072185;28;20485;-57
2022/04/28 05:49:52;;;;;;;5.00;1.73;;;8.80;1.20;;;;;;5072021;28;20480;-57
2022/04/28 05:52:19;;;;;;;7.03;1.97;;;8.90;1.00;;;;;;5072422;28;20438;-56
2022/04/28 05:54:46;;;;;;;4.00;2.70;;;8.90;1.00;;;;;;5074380;28;20565;-56
2022/04/28 05:57:13;;;;;;;2.43;1.70;;;8.80;1.00;;;;;;5075152;28;20554;-56
2022/04/28 05:59:40;;;;;;;5.33;1.73;;;8.80;1.00;;;;;;5073684;28;20639;-57
2022/04/28 06:02:08;;;;;;;6.30;2.57;;;8.80;1.00;;;;;;5075417;28;20445;-56
2022/04/28 06:04:36;;;;;;;9.27;3.13;;;8.80;1.00;;;;;;5077051;28;20549;-57
2022/04/28 06:07:03;;;;;;;3.30;1.87;;;8.90;1.00;;;;;;5076147;28;20737;-55
2022/04/28 06:09:30;;;;;;;17.73;10.53;;;9.00;1.00;;;;;;5076599;28;20447;-55
2022/04/28 06:11:56;;;;;;;4.53;2.13;;;9.10;1.00;;;;;;5076404;28;20453;-55
2022/04/28 06:14:23;;;;;;;4.40;2.20;;;9.20;1.00;;;;;;5075125;28;20883;-59
2022/04/28 06:16:50;;;;;;;4.90;2.80;;;9.30;1.00;;;;;;5075220;28;20486;-59
2022/04/28 06:19:19;;;;;;;3.40;2.30;;;9.30;1.00;;;;;;5075492;28;20891;-55
2022/04/28 06:21:48;;;;;;;4.07;2.53;;;9.30;1.00;;;;;;5080907;28;20493;-57
2022/04/28 06:24:14;;;;;;;2.57;2.13;;;9.40;1.00;;;;;;5094478;28;20444;-57
2022/04/28 06:26:41;;;;;;;4.33;2.47;;;9.40;1.00;;;;;;5095075;28;20446;-57
2022/04/28 06:29:08;;;;;;;2.77;1.80;;;9.50;1.00;;;;;;5094198;28;20452;-56
2022/04/28 06:31:35;;;;;;;4.27;2.80;;;9.70;1.00;;;;;;5096824;28;20450;-57
2022/04/28 06:34:02;;;;;;;2.90;1.93;;;9.80;1.00;;;;;;5096648;28;20865;-56
2022/04/28 06:36:31;;;;;;;6.80;2.77;;;9.80;1.00;;;;;;5096549;28;20485;-57
2022/04/28 06:39:02;;;;;;;3.00;2.30;;;9.90;1.00;;;;;;5097516;28;20452;-57
2022/04/28 06:41:29;;;;;;;4.63;2.50;;;9.90;1.00;;;;;;5094693;28;20464;-56
2022/04/28 06:43:56;;;;;;;5.37;2.53;;;9.90;1.00;;;;;;5096795;28;20477;-56
2022/04/28 06:46:23;;;;;;;2.57;1.67;;;10.00;1.00;;;;;;5096309;28;20457;-55
2022/04/28 06:48:50;;;;;;;3.80;2.40;;;10.10;1.00;;;;;;5096016;28;20907;-57
2022/04/28 06:51:17;;;;;;;3.30;2.03;;;10.30;1.00;;;;;;5096707;28;20454;-56
2022/04/28 06:53:43;;;;;;;7.07;1.87;;;10.30;99.90;;;;;;5095425;28;20445;-57
2022/04/28 06:56:12;;;;;;;4.63;2.47;;;10.40;1.00;;;;;;5096343;28;20778;-57
2022/04/28 06:58:38;;;;;;;3.30;1.77;;;10.60;99.90;;;;;;5081083;28;20882;-55
2022/04/28 07:01:05;;;;;;;6.07;2.17;;;10.80;99.90;;;;;;5085269;28;20454;-55
2022/04/28 07:03:32;;;;;;;3.20;2.30;;;10.90;99.90;;;;;;5095637;28;20452;-57
2022/04/28 07:05:59;;;;;;;4.10;2.27;;;11.10;17.70;;;;;;5095990;28;20948;-57
2022/04/28 07:08:26;;;;;;;2.20;1.70;;;11.10;99.90;;;;;;5095564;28;20446;-56
2022/04/28 07:10:53;;;;;;;4.87;2.57;;;11.10;99.90;;;;;;5095976;28;20449;-57
2022/04/28 07:13:21;;;;;;;3.33;1.70;;;11.10;1.00;;;;;;5095306;28;20532;-54
2022/04/28 07:15:48;;;;;;;5.50;2.10;;;11.20;1.00;;;;;;5096608;28;20971;-54
2022/04/28 07:18:16;;;;;;;3.87;2.33;;;11.30;99.90;;;;;;5095216;28;20540;-58
2022/04/28 07:20:44;;;;;;;2.77;1.83;;;11.40;99.90;;;;;;5093115;28;20446;-56
2022/04/28 07:23:11;;;;;;;2.27;1.43;;;11.40;1.00;;;;;;5093685;28;20450;-56
2022/04/28 07:25:38;;;;;;;5.63;3.17;;;11.60;99.90;;;;;;5093972;28;20608;-57
2022/04/28 07:28:05;;;;;;;2.47;1.77;;;11.80;1.00;;;;;;5094602;28;20448;-57
2022/04/28 07:30:34;;;;;;;3.60;1.60;;;11.80;1.00;;;;;;5093751;28;20856;-57
2022/04/28 07:33:00;;;;;;;3.63;1.83;;;12.00;1.00;;;;;;5084175;28;20452;-57
2022/04/28 07:35:27;;;;;;;2.97;1.20;;;12.10;1.00;;;;;;5092636;28;20673;-55
2022/04/28 07:37:54;;;;;;;3.07;1.47;;;12.20;1.00;;;;;;5093578;28;20815;-56
2022/04/28 07:40:21;;;;;;;2.30;1.33;;;12.40;1.00;;;;;;5093105;28;20449;-56
2022/04/28 07:42:48;;;;;;;3.80;1.27;;;12.50;1.00;;;;;;5073781;28;20601;-56
2022/04/28 07:45:15;;;;;;;2.10;1.40;;;12.60;1.00;;;;;;5072184;28;20482;-56
2022/04/28 07:47:43;;;;;;;2.20;1.33;;;12.60;1.00;;;;;;5079071;28;20441;-56
2022/04/28 07:50:13;;;;;;;3.80;1.50;;;12.80;1.00;;;;;;5094024;28;20450;-57
2022/04/28 07:52:40;;;;;;;2.13;1.20;;;12.90;1.00;;;;;;5090029;28;20449;-58
2022/04/28 07:55:08;;;;;;;2.33;1.40;;;13.00;99.90;;;;;;5087173;28;20461;-57
2022/04/28 07:57:37;;;;;;;2.97;1.40;;;13.10;99.90;;;;;;5082428;28;20470;-58
2022/04/28 08:00:05;;;;;;;2.30;1.20;;;13.20;99.90;;;;;;5090479;28;20748;-58
2022/04/28 08:02:32;;;;;;;1.80;1.17;;;13.30;99.90;;;;;;5088930;28;20464;-59
2022/04/28 08:05:01;;;;;;;1.57;1.20;;;13.40;99.90;;;;;;5090504;28;20564;-58
2022/04/28 08:07:28;;;;;;;3.00;1.57;;;13.50;99.90;;;;;;5089557;28;20433;-56
2022/04/28 08:09:54;;;;;;;3.30;1.37;;;13.60;99.90;;;;;;5087589;28;20454;-58
2022/04/28 08:12:21;;;;;;;2.00;1.20;;;13.70;99.90;;;;;;5073832;28;20561;-59
2022/04/28 08:14:48;;;;;;;2.40;1.40;;;13.80;99.90;;;;;;5089326;28;20548;-59
2022/04/28 08:17:15;;;;;;;2.30;1.40;;;13.80;98.60;;;;;;5090867;28;20474;-57
2022/04/28 08:19:42;;;;;;;2.20;1.47;;;13.80;29.50;;;;;;5087792;28;20453;-58
2022/04/28 08:22:10;;;;;;;4.20;1.23;;;13.80;8.10;;;;;;5088289;28;20446;-58
2022/04/28 08:24:37;;;;;;;1.70;1.10;;;13.80;25.20;;;;;;5069239;28;20442;-58
2022/04/28 08:27:04;;;;;;;2.00;1.10;;;14.00;16.90;;;;;;5078240;28;20544;-58
2022/04/28 08:29:31;;;;;;;1.50;1.30;;;14.20;1.00;;;;;;5070168;28;20922;-57
2022/04/28 08:31:58;;;;;;;2.40;1.10;;;14.20;1.00;;;;;;5087116;28;20448;-59
2022/04/28 08:34:25;;;;;;;2.47;1.30;;;14.30;1.00;;;;;;5090527;28;20448;-60
2022/04/28 08:36:52;;;;;;;1.77;1.00;;;14.40;1.00;;;;;;5092266;28;20473;-60
2022/04/28 08:39:21;;;;;;;3.50;1.40;;;14.60;1.00;;;;;;5096544;28;20450;-51
2022/04/28 08:41:48;;;;;;;2.70;0.90;;;14.70;1.00;;;;;;5095985;28;20461;-51
2022/04/28 08:44:18;;;;;;;2.07;1.00;;;14.80;1.00;;;;;;5095319;28;20479;-53
2022/04/28 08:46:52;;;;;;;1.40;0.90;;;15.00;1.00;;;;;;5095088;28;20457;-55
2022/04/28 08:49:20;;;;;;;1.17;0.90;;;15.10;1.00;;;;;;5096261;28;20456;-51
2022/04/28 08:51:47;;;;;;;1.50;1.00;;;15.20;1.00;;;;;;5081770;28;20523;-55
2022/04/28 08:54:15;;;;;;;1.87;1.10;;;15.30;1.00;;;;;;5078044;28;20455;-54
2022/04/28 08:56:43;;;;;;;1.20;0.83;;;15.40;1.00;;;;;;5079935;28;20492;-55
2022/04/28 08:59:10;;;;;;;1.67;0.90;;;15.50;1.00;;;;;;5079378;28;20461;-55
2022/04/28 09:01:37;;;;;;;1.97;0.90;;;15.60;1.00;;;;;;5097071;28;20456;-54
2022/04/28 09:04:05;;;;;;;2.23;1.00;;;15.60;1.00;;;;;;5095717;28;20445;-53
2022/04/28 09:06:35;;;;;;;1.30;0.80;;;15.70;1.00;;;;;;5096441;28;20456;-52
2022/04/28 09:09:06;;;;;;;1.27;0.80;;;15.90;1.00;;;;;;5095862;28;20468;-50
2022/04/28 09:11:35;;;;;;;1.30;0.90;;;16.00;1.00;;;;;;5095520;28;20453;-53
2022/04/28 09:14:11;;;;;;;1.73;0.90;;;16.10;1.00;;;;;;5093676;28;20970;-55
2022/04/28 09:16:42;;;;;;;1.27;0.97;;;16.20;1.00;;;;;;5093880;28;20503;-54
2022/04/28 09:19:09;;;;;;;1.17;0.90;;;16.30;1.00;;;;;;5094750;28;20449;-54
2022/04/28 09:21:37;;;;;;;1.43;0.90;;;16.20;1.00;;;;;;5093666;28;20910;-55
2022/04/28 09:24:05;;;;;;;1.63;0.83;;;16.30;1.00;;;;;;5095721;28;20535;-52
2022/04/28 09:26:33;;;;;;;2.37;0.93;;;16.30;1.00;;;;;;5094559;28;20481;-55
2022/04/28 09:29:02;;;;;;;1.30;0.90;;;16.30;1.00;;;;;;5095264;28;20897;-54
2022/04/28 09:31:34;;;;;;;1.77;0.90;;;16.00;1.00;;;;;;5095372;28;20464;-56
2022/04/28 09:34:06;;;;;;;1.10;0.70;;;15.80;1.00;;;;;;5092077;28;20843;-57
2022/04/28 09:36:33;;;;;;;2.37;1.70;;;15.90;1.00;;;;;;5094252;28;20477;-53
2022/04/28 09:39:01;;;;;;;2.67;1.43;;;16.20;1.00;;;;;;5095781;28;20480;-55
2022/04/28 09:44:24;;;;;;;1.00;0.60;;;16.50;1.00;;;;;;5034723;28;20463;-55
2022/04/28 09:46:52;;;;;;;1.20;0.80;;;16.50;1.00;;;;;;5083015;28;20433;-53
2022/04/28 09:49:24;;;;;;;1.43;0.70;;;16.50;1.00;;;;;;5096577;28;20731;-56
2022/04/28 09:51:57;;;;;;;1.10;0.80;;;16.60;1.00;;;;;;5083927;28;20508;-53
2022/04/28 09:54:28;;;;;;;1.37;0.80;;;16.70;1.00;;;;;;5077065;28;20458;-53
2022/04/28 09:56:55;;;;;;;1.10;0.70;;;16.70;1.00;;;;;;5077639;28;20482;-55
2022/04/28 09:59:23;;;;;;;0.83;0.63;;;16.80;1.00;;;;;;5095493;28;20761;-52
2022/04/28 10:01:53;;;;;;;2.80;0.73;;;16.90;1.00;;;;;;5094519;28;20453;-52
2022/04/28 10:04:19;;;;;;;0.97;0.70;;;16.90;1.00;;;;;;5087607;28;20458;-52
2022/04/28 10:06:48;;;;;;;0.90;0.67;;;16.80;1.00;;;;;;5076302;28;20446;-56
2022/04/28 10:09:17;;;;;;;1.00;0.77;;;16.80;1.00;;;;;;5074426;28;20446;-53
2022/04/28 10:11:44;;;;;;;1.07;0.70;;;16.90;1.00;;;;;;5092357;28;20540;-53
2022/04/28 10:14:16;;;;;;;0.97;0.70;;;17.20;1.00;;;;;;5094215;28;20449;-53
2022/04/28 10:16:47;;;;;;;1.20;0.77;;;17.50;1.00;;;;;;5093071;28;20530;-53
2022/04/28 10:19:23;;;;;;;2.73;0.70;;;17.90;1.00;;;;;;5092269;28;20442;-56
2022/04/28 10:21:54;;;;;;;0.80;0.60;;;18.20;1.00;;;;;;5083449;28;20443;-52
2022/04/28 10:32:55;;;;;;;0.80;0.60;;;19.70;1.00;;;;;;5091098;28;20474;-54
2022/04/28 10:35:44;;;;;;;1.00;0.70;;;19.90;1.00;;;;;;5091120;28;20899;-55
2022/04/28 10:38:14;;;;;;;0.80;0.50;;;20.00;1.00;;;;;;5093109;28;20481;-50
2022/04/28 10:40:43;;;;;;;0.63;0.50;;;20.20;1.00;;;;;;5090929;28;20458;-54
2022/04/28 10:43:24;;;;;;;1.80;0.93;;;20.30;1.00;;;;;;5092134;28;20759;-55
2022/04/28 10:45:52;;;;;;;0.70;0.60;;;20.40;1.00;;;;;;5090477;28;20943;-54
2022/04/28 10:48:28;;;;;;;0.80;0.67;;;20.50;1.00;;;;;;5093697;28;20741;-56
2022/04/28 10:51:22;;;;;;;3.00;0.70;;;20.60;1.00;;;;;;5091986;28;20453;-54
2022/04/28 10:54:07;;;;;;;1.20;0.70;;;20.80;1.00;;;;;;5092139;28;20446;-57
2022/04/28 10:56:54;;;;;;;0.80;0.60;;;20.60;1.00;;;;;;5092565;28;20461;-57
2022/04/28 10:59:35;;;;;;;2.40;0.77;;;20.90;1.00;;;;;;5092788;28;20532;-55
2022/04/28 11:02:41;;;;;;;1.30;0.80;;;20.80;1.00;;;;;;5094919;28;20758;-54
2022/04/28 11:05:35;;;;;;;1.00;0.60;;;20.60;1.00;;;;;;5094306;28;20898;-57
2022/04/28 11:08:03;;;;;;;1.17;0.60;;;21.10;1.00;;;;;;5084310;28;20531;-57
2022/04/28 11:10:31;;;;;;;0.87;0.60;;;21.50;1.00;;;;;;5089537;28;20718;-57
2022/04/28 11:13:09;;;;;;;0.87;0.70;;;21.40;1.00;;;;;;5085502;28;20744;-56
2022/04/28 11:15:37;;;;;;;0.97;0.70;;;21.10;1.00;;;;;;5085096;28;20511;-56
2022/04/28 11:18:04;;;;;;;0.90;0.60;;;21.30;1.00;;;;;;5082471;28;20486;-57
2022/04/28 11:20:32;;;;;;;1.00;0.70;;;21.70;1.00;;;;;;5085189;28;20466;-59
2022/04/28 11:23:03;;;;;;;1.10;0.63;;;22.20;1.00;;;;;;5093181;28;20460;-58
2022/04/28 11:25:30;;;;;;;1.13;0.73;;;22.60;1.00;;;;;;5093152;28;20768;-61
2022/04/28 11:27:57;;;;;;;0.90;0.77;;;22.80;1.00;;;;;;5092124;28;20464;-57
2022/04/28 11:30:25;;;;;;;0.90;0.60;;;22.70;1.00;;;;;;5084313;28;20839;-59
2022/04/28 11:32:57;;;;;;;0.93;0.70;;;22.50;1.00;;;;;;5091224;28;20522;-58
2022/04/28 11:35:29;;;;;;;0.97;0.70;;;22.50;1.00;;;;;;5092601;28;20449;-58
2022/04/28 11:37:56;;;;;;;1.20;0.70;;;22.60;1.00;;;;;;5091165;28;20488;-54
2022/04/28 11:40:25;;;;;;;1.13;0.67;;;22.40;1.00;;;;;;5093276;28;20495;-56
2022/04/28 11:42:56;;;;;;;1.20;0.63;;;22.10;1.00;;;;;;5092362;28;20449;-55
2022/04/28 11:45:23;;;;;;;1.17;0.67;;;22.40;1.00;;;;;;5091356;28;20465;-57
2022/04/28 11:47:53;;;;;;;1.20;0.70;;;22.60;1.00;;;;;;5091756;28;20450;-57
2022/04/28 11:50:21;;;;;;;1.70;0.90;;;22.90;1.00;;;;;;5091295;28;20881;-59
2022/04/28 11:52:59;;;;;;;1.20;0.70;;;23.00;1.00;;;;;;5090644;28;20534;-57
2022/04/28 11:55:30;;;;;;;0.90;0.70;;;23.20;1.00;;;;;;5089539;28;20472;-58
2022/04/28 11:57:57;;;;;;;1.30;0.60;;;23.10;1.00;;;;;;5079136;28;20517;-58
2022/04/28 12:00:26;;;;;;;0.87;0.63;;;23.10;1.00;;;;;;5090694;28;20763;-58
2022/04/28 12:02:53;;;;;;;1.20;0.70;;;22.90;1.00;;;;;;5090260;28;20556;-58
2022/04/28 12:05:22;;;;;;;1.30;0.70;;;22.90;1.00;;;;;;5091584;28;20916;-57
2022/04/28 12:07:52;;;;;;;0.83;0.67;;;22.30;1.00;;;;;;5088773;28;20468;-57
2022/04/28 12:15:55;;;;;;;0.80;0.50;;;22.70;1.00;;;;;;5088001;28;20448;-59
2022/04/28 12:21:18;;;;;;;0.90;0.60;;;22.60;1.00;;;;;;5090419;28;20467;-60
2022/04/28 12:23:50;;;;;;;1.47;0.60;;;22.80;1.00;;;;;;5084039;28;20471;-59
2022/04/28 12:26:20;;;;;;;1.43;0.70;;;22.80;1.00;;;;;;5090922;28;20516;-60
2022/04/28 12:28:48;;;;;;;0.70;0.60;;;22.30;1.00;;;;;;5090061;28;20519;-60
2022/04/28 12:31:17;;;;;;;0.70;0.50;;;22.30;1.00;;;;;;5090600;28;20753;-59
2022/04/28 12:33:47;;;;;;;1.30;0.80;;;22.60;1.00;;;;;;5087448;28;20464;-59
2022/04/28 12:36:14;;;;;;;0.67;0.60;;;22.70;1.00;;;;;;5087528;28;20191;-60
2022/04/28 12:38:45;;;;;;;1.00;0.70;;;22.60;1.00;;;;;;5090617;28;20970;-60
2022/04/28 12:41:17;;;;;;;1.77;0.70;;;22.90;1.00;;;;;;5079427;28;20463;-60
2022/04/28 12:43:48;;;;;;;0.90;0.70;;;22.90;1.00;;;;;;5090861;28;20446;-60
2022/04/28 12:46:21;;;;;;;1.20;0.80;;;22.80;1.00;;;;;;5090513;28;20540;-59
2022/04/28 12:48:54;;;;;;;1.10;0.60;;;23.00;1.00;;;;;;5090247;28;20938;-60
2022/04/28 12:51:22;;;;;;;1.00;0.60;;;23.00;1.00;;;;;;5088730;28;20195;-60
2022/04/28 12:53:53;;;;;;;0.80;0.70;;;23.20;1.00;;;;;;5088076;28;20465;-60
2022/04/28 12:56:28;;;;;;;0.90;0.70;;;23.10;1.00;;;;;;5082867;28;20453;-60
2022/04/28 12:58:57;;;;;;;2.60;0.60;;;22.90;1.00;;;;;;5085185;28;20481;-60
2022/04/28 13:01:26;;;;;;;0.90;0.60;;;23.20;1.00;;;;;;5090086;28;20452;-60
2022/04/28 13:03:56;;;;;;;0.70;0.50;;;23.20;1.00;;;;;;5086230;28;20933;-60
2022/04/28 13:06:23;;;;;;;0.77;0.57;;;23.10;1.00;;;;;;5090086;28;20487;-60
2022/04/28 13:08:51;;;;;;;0.90;0.60;;;23.40;1.00;;;;;;5090854;28;20788;-60
2022/04/28 13:11:24;;;;;;;0.80;0.60;;;23.60;1.00;;;;;;5087317;28;20485;-60
2022/04/28 13:13:50;;;;;;;0.70;0.60;;;23.50;1.00;;;;;;5087884;28;20462;-60
2022/04/28 13:16:18;;;;;;;0.80;0.60;;;23.50;1.00;;;;;;5087154;28;20462;-60
2022/04/28 13:18:46;;;;;;;1.53;0.70;;;23.60;1.00;;;;;;5085332;28;20606;-58
2022/04/28 13:21:13;;;;;;;0.90;0.67;;;23.50;1.00;;;;;;5088691;28;20461;-60
2022/04/28 13:23:40;;;;;;;0.80;0.60;;;22.90;1.00;;;;;;5092996;28;20758;-61
2022/04/28 13:26:08;;;;;;;0.80;0.70;;;22.80;1.00;;;;;;5092918;28;20437;-60
2022/04/28 13:28:35;;;;;;;1.60;0.70;;;22.70;1.00;;;;;;5095201;28;20761;-58
2022/04/28 13:31:03;;;;;;;0.90;0.50;;;22.70;1.00;;;;;;5092564;28;20448;-60
2022/04/28 13:33:30;;;;;;;0.97;0.60;;;22.60;1.00;;;;;;5094260;28;20488;-60
2022/04/28 13:35:58;;;;;;;0.80;0.63;;;22.60;1.00;;;;;;5092573;28;20461;-59
2022/04/28 13:38:25;;;;;;;0.80;0.60;;;22.50;1.00;;;;;;5095030;28;20766;-60
2022/04/28 13:40:52;;;;;;;1.03;0.70;;;22.50;1.00;;;;;;5092356;28;20493;-61
2022/04/28 13:43:19;;;;;;;6.60;4.40;;;22.50;1.00;;;;;;5093071;28;20441;-60
2022/04/28 13:45:46;;;;;;;3.87;2.77;;;22.40;1.00;;;;;;5091864;28;20446;-60